sensor_id;sensor_type;location;lat;lon;timestamp;P1;durP1;ratioP1;P2;durP2;ratioP2
11711;SDS011;5912;51.034;6.984;2023-02-01T00:00:42;8.67;;;5.20;;
11711;SDS011;5912;51.034;6.984;2023-02-01T00:03:08;10.03;;;4.40;;
11711;SDS011;5912;51.034;6.984;2023-02-01T00:05:33;10.73;;;4.37;;
11711;SDS011;5912;51.034;6.984;2023-02-01T00:07:58;8.33;;;4.60;;
11711;SDS011;5912;51.034;6.984;2023-02-01T00:10:24;9.53;;;4.23;;
11711;SDS011;5912;51.034;6.984;2023-02-01T00:12:49;9.33;;;4.50;;
11711;SDS011;5912;51.034;6.984;2023-02-01T00:15:14;7.47;;;4.33;;
11711;SDS011;5912;51.034;6.984;2023-02-01T00:17:40;12.30;;;4.60;;
11711;SDS011;5912;51.034;6.984;2023-02-01T00:20:05;9.73;;;4.73;;
11711;SDS011;5912;51.034;6.984;2023-02-01T00:22:32;8.20;;;4.73;;
11711;SDS011;5912;51.034;6.984;2023-02-01T00:24:57;13.60;;;5.00;;
11711;SDS011;5912;51.034;6.984;2023-02-01T00:27:22;8.43;;;5.00;;
11711;SDS011;5912;51.034;6.984;2023-02-01T00:29:48;9.57;;;5.07;;
11711;SDS011;5912;51.034;6.984;2023-02-01T00:32:13;13.77;;;5.43;;
11711;SDS011;5912;51.034;6.984;2023-02-01T00:34:38;11.23;;;5.73;;
11711;SDS011;5912;51.034;6.984;2023-02-01T00:37:04;11.10;;;5.10;;
11711;SDS011;5912;51.034;6.984;2023-02-01T00:39:29;11.53;;;5.43;;
11711;SDS011;5912;51.034;6.984;2023-02-01T00:42:04;12.90;;;5.33;;
11711;SDS011;5912;51.034;6.984;2023-02-01T00:44:29;9.83;;;5.07;;
11711;SDS011;5912;51.034;6.984;2023-02-01T00:46:58;13.33;;;5.37;;
11711;SDS011;5912;51.034;6.984;2023-02-01T00:49:24;9.03;;;4.47;;
11711;SDS011;5912;51.034;6.984;2023-02-01T00:51:49;9.40;;;4.53;;
11711;SDS011;5912;51.034;6.984;2023-02-01T00:54:14;9.23;;;4.27;;
11711;SDS011;5912;51.034;6.984;2023-02-01T00:56:40;8.60;;;4.17;;
11711;SDS011;5912;51.034;6.984;2023-02-01T00:59:05;12.87;;;5.13;;
11711;SDS011;5912;51.034;6.984;2023-02-01T01:01:30;9.63;;;3.67;;
11711;SDS011;5912;51.034;6.984;2023-02-01T01:03:57;9.37;;;3.67;;
11711;SDS011;5912;51.034;6.984;2023-02-01T01:06:28;8.13;;;3.40;;
11711;SDS011;5912;51.034;6.984;2023-02-01T01:08:55;10.57;;;3.53;;
11711;SDS011;5912;51.034;6.984;2023-02-01T01:11:24;11.33;;;3.67;;
11711;SDS011;5912;51.034;6.984;2023-02-01T01:13:51;8.17;;;2.97;;
11711;SDS011;5912;51.034;6.984;2023-02-01T01:16:18;8.83;;;3.10;;
11711;SDS011;5912;51.034;6.984;2023-02-01T01:18:46;7.47;;;2.90;;
11711;SDS011;5912;51.034;6.984;2023-02-01T01:21:12;7.40;;;2.90;;
11711;SDS011;5912;51.034;6.984;2023-02-01T01:23:42;9.43;;;2.90;;
11711;SDS011;5912;51.034;6.984;2023-02-01T01:26:09;7.00;;;2.70;;
11711;SDS011;5912;51.034;6.984;2023-02-01T01:28:37;13.33;;;2.80;;
11711;SDS011;5912;51.034;6.984;2023-02-01T01:31:02;9.23;;;2.80;;
11711;SDS011;5912;51.034;6.984;2023-02-01T01:33:28;7.20;;;2.60;;
11711;SDS011;5912;51.034;6.984;2023-02-01T01:35:53;6.13;;;2.20;;
11711;SDS011;5912;51.034;6.984;2023-02-01T01:38:18;6.50;;;2.33;;
11711;SDS011;5912;51.034;6.984;2023-02-01T01:40:45;9.43;;;4.20;;
11711;SDS011;5912;51.034;6.984;2023-02-01T01:43:14;8.57;;;2.33;;
11711;SDS011;5912;51.034;6.984;2023-02-01T01:45:41;10.20;;;2.77;;
11711;SDS011;5912;51.034;6.984;2023-02-01T01:48:08;6.13;;;2.23;;
11711;SDS011;5912;51.034;6.984;2023-02-01T01:50:52;6.43;;;1.97;;
11711;SDS011;5912;51.034;6.984;2023-02-01T01:53:23;4.97;;;2.13;;
11711;SDS011;5912;51.034;6.984;2023-02-01T01:55:54;9.83;;;3.30;;
11711;SDS011;5912;51.034;6.984;2023-02-01T01:58:21;12.10;;;3.00;;
11711;SDS011;5912;51.034;6.984;2023-02-01T02:00:50;9.23;;;2.47;;
11711;SDS011;5912;51.034;6.984;2023-02-01T02:03:20;7.20;;;2.43;;
11711;SDS011;5912;51.034;6.984;2023-02-01T02:05:49;7.40;;;2.60;;
11711;SDS011;5912;51.034;6.984;2023-02-01T02:08:16;7.30;;;2.73;;
11711;SDS011;5912;51.034;6.984;2023-02-01T02:10:45;7.40;;;2.17;;
11711;SDS011;5912;51.034;6.984;2023-02-01T02:13:30;8.50;;;2.80;;
11711;SDS011;5912;51.034;6.984;2023-02-01T02:30:21;9.37;;;2.33;;
11711;SDS011;5912;51.034;6.984;2023-02-01T02:38:21;9.47;;;2.53;;
11711;SDS011;5912;51.034;6.984;2023-02-01T02:41:13;6.53;;;2.63;;
11711;SDS011;5912;51.034;6.984;2023-02-01T02:43:59;5.67;;;2.30;;
11711;SDS011;5912;51.034;6.984;2023-02-01T02:46:52;7.80;;;2.60;;
11711;SDS011;5912;51.034;6.984;2023-02-01T02:49:51;9.13;;;3.00;;
11711;SDS011;5912;51.034;6.984;2023-02-01T02:53:32;7.63;;;2.60;;
11711;SDS011;5912;51.034;6.984;2023-02-01T02:56:07;6.40;;;2.33;;
11711;SDS011;5912;51.034;6.984;2023-02-01T02:58:54;9.33;;;2.50;;
11711;SDS011;5912;51.034;6.984;2023-02-01T03:01:38;9.07;;;2.93;;
11711;SDS011;5912;51.034;6.984;2023-02-01T03:04:24;6.13;;;2.50;;
11711;SDS011;5912;51.034;6.984;2023-02-01T03:06:51;11.33;;;2.90;;
11711;SDS011;5912;51.034;6.984;2023-02-01T03:09:19;8.20;;;3.50;;
11711;SDS011;5912;51.034;6.984;2023-02-01T03:11:56;5.93;;;2.40;;
11711;SDS011;5912;51.034;6.984;2023-02-01T03:14:45;4.80;;;2.70;;
11711;SDS011;5912;51.034;6.984;2023-02-01T03:17:19;6.63;;;2.90;;
11711;SDS011;5912;51.034;6.984;2023-02-01T03:19:50;10.23;;;3.80;;
11711;SDS011;5912;51.034;6.984;2023-02-01T03:22:20;7.90;;;2.93;;
11711;SDS011;5912;51.034;6.984;2023-02-01T03:24:53;11.37;;;3.40;;
11711;SDS011;5912;51.034;6.984;2023-02-01T03:27:22;9.97;;;3.57;;
11711;SDS011;5912;51.034;6.984;2023-02-01T03:32:20;10.80;;;3.77;;
11711;SDS011;5912;51.034;6.984;2023-02-01T03:34:46;6.90;;;3.63;;
11711;SDS011;5912;51.034;6.984;2023-02-01T03:37:14;14.10;;;4.20;;
11711;SDS011;5912;51.034;6.984;2023-02-01T03:42:48;7.90;;;3.07;;
11711;SDS011;5912;51.034;6.984;2023-02-01T03:45:27;9.97;;;4.07;;
11711;SDS011;5912;51.034;6.984;2023-02-01T03:47:59;7.10;;;3.80;;
11711;SDS011;5912;51.034;6.984;2023-02-01T03:50:29;10.23;;;3.57;;
11711;SDS011;5912;51.034;6.984;2023-02-01T03:55:34;9.33;;;3.87;;
11711;SDS011;5912;51.034;6.984;2023-02-01T04:00:40;10.57;;;3.40;;
11711;SDS011;5912;51.034;6.984;2023-02-01T04:03:08;9.93;;;3.80;;
11711;SDS011;5912;51.034;6.984;2023-02-01T04:05:34;10.20;;;3.73;;
11711;SDS011;5912;51.034;6.984;2023-02-01T04:08:00;10.37;;;3.20;;
11711;SDS011;5912;51.034;6.984;2023-02-01T04:10:26;10.80;;;3.67;;
11711;SDS011;5912;51.034;6.984;2023-02-01T04:12:51;10.13;;;3.50;;
11711;SDS011;5912;51.034;6.984;2023-02-01T04:15:17;9.13;;;3.50;;
11711;SDS011;5912;51.034;6.984;2023-02-01T04:17:42;9.90;;;3.43;;
11711;SDS011;5912;51.034;6.984;2023-02-01T04:20:07;7.13;;;3.10;;
11711;SDS011;5912;51.034;6.984;2023-02-01T04:22:34;8.97;;;3.30;;
11711;SDS011;5912;51.034;6.984;2023-02-01T04:24:59;11.30;;;3.23;;
11711;SDS011;5912;51.034;6.984;2023-02-01T04:27:24;10.77;;;3.17;;
11711;SDS011;5912;51.034;6.984;2023-02-01T04:29:50;7.17;;;2.53;;
11711;SDS011;5912;51.034;6.984;2023-02-01T04:32:15;7.70;;;2.73;;
11711;SDS011;5912;51.034;6.984;2023-02-01T04:34:41;9.03;;;2.60;;
11711;SDS011;5912;51.034;6.984;2023-02-01T04:37:06;11.30;;;3.03;;
11711;SDS011;5912;51.034;6.984;2023-02-01T04:39:32;8.33;;;2.60;;
11711;SDS011;5912;51.034;6.984;2023-02-01T04:41:57;9.30;;;2.93;;
11711;SDS011;5912;51.034;6.984;2023-02-01T04:44:23;10.17;;;2.80;;
11711;SDS011;5912;51.034;6.984;2023-02-01T04:46:48;12.57;;;2.83;;
11711;SDS011;5912;51.034;6.984;2023-02-01T04:49:14;10.10;;;2.53;;
11711;SDS011;5912;51.034;6.984;2023-02-01T04:51:40;11.03;;;2.80;;
11711;SDS011;5912;51.034;6.984;2023-02-01T04:54:06;7.93;;;3.10;;
11711;SDS011;5912;51.034;6.984;2023-02-01T04:56:33;11.03;;;2.80;;
11711;SDS011;5912;51.034;6.984;2023-02-01T04:58:59;7.93;;;2.60;;
11711;SDS011;5912;51.034;6.984;2023-02-01T05:01:25;10.70;;;2.77;;
11711;SDS011;5912;51.034;6.984;2023-02-01T05:03:50;7.03;;;2.70;;
11711;SDS011;5912;51.034;6.984;2023-02-01T05:06:16;10.30;;;2.43;;
11711;SDS011;5912;51.034;6.984;2023-02-01T05:08:42;10.00;;;2.40;;
11711;SDS011;5912;51.034;6.984;2023-02-01T05:11:07;6.80;;;2.63;;
11711;SDS011;5912;51.034;6.984;2023-02-01T05:13:52;10.00;;;2.80;;
11711;SDS011;5912;51.034;6.984;2023-02-01T05:16:18;13.50;;;2.47;;
11711;SDS011;5912;51.034;6.984;2023-02-01T05:18:43;10.90;;;2.43;;
11711;SDS011;5912;51.034;6.984;2023-02-01T05:21:09;13.63;;;2.90;;
11711;SDS011;5912;51.034;6.984;2023-02-01T05:23:34;11.00;;;2.67;;
11711;SDS011;5912;51.034;6.984;2023-02-01T05:26:22;6.97;;;2.47;;
11711;SDS011;5912;51.034;6.984;2023-02-01T05:28:48;7.90;;;1.90;;
11711;SDS011;5912;51.034;6.984;2023-02-01T05:31:13;11.17;;;2.73;;
11711;SDS011;5912;51.034;6.984;2023-02-01T05:33:38;9.57;;;3.00;;
11711;SDS011;5912;51.034;6.984;2023-02-01T05:36:04;12.17;;;2.90;;
11711;SDS011;5912;51.034;6.984;2023-02-01T05:38:29;13.40;;;2.33;;
11711;SDS011;5912;51.034;6.984;2023-02-01T05:40:55;10.80;;;2.60;;
11711;SDS011;5912;51.034;6.984;2023-02-01T05:43:21;10.97;;;2.33;;
11711;SDS011;5912;51.034;6.984;2023-02-01T05:45:46;10.47;;;3.10;;
11711;SDS011;5912;51.034;6.984;2023-02-01T05:48:12;11.57;;;2.40;;
11711;SDS011;5912;51.034;6.984;2023-02-01T05:50:37;8.33;;;2.30;;
11711;SDS011;5912;51.034;6.984;2023-02-01T05:53:03;6.73;;;2.20;;
11711;SDS011;5912;51.034;6.984;2023-02-01T05:55:28;8.57;;;2.10;;
11711;SDS011;5912;51.034;6.984;2023-02-01T05:57:53;8.90;;;2.30;;
11711;SDS011;5912;51.034;6.984;2023-02-01T06:00:19;8.90;;;2.20;;
11711;SDS011;5912;51.034;6.984;2023-02-01T06:02:44;9.63;;;2.00;;
11711;SDS011;5912;51.034;6.984;2023-02-01T06:05:10;10.27;;;2.57;;
11711;SDS011;5912;51.034;6.984;2023-02-01T06:07:35;8.90;;;2.30;;
11711;SDS011;5912;51.034;6.984;2023-02-01T06:10:00;10.53;;;2.40;;
11711;SDS011;5912;51.034;6.984;2023-02-01T06:12:26;7.67;;;2.17;;
11711;SDS011;5912;51.034;6.984;2023-02-01T06:14:53;8.60;;;2.37;;
11711;SDS011;5912;51.034;6.984;2023-02-01T06:17:18;7.07;;;2.00;;
11711;SDS011;5912;51.034;6.984;2023-02-01T06:19:43;9.47;;;2.47;;
11711;SDS011;5912;51.034;6.984;2023-02-01T06:22:09;6.40;;;2.20;;
11711;SDS011;5912;51.034;6.984;2023-02-01T06:24:35;9.03;;;2.60;;
11711;SDS011;5912;51.034;6.984;2023-02-01T06:27:00;18.87;;;2.60;;
11711;SDS011;5912;51.034;6.984;2023-02-01T06:29:26;10.77;;;2.50;;
11711;SDS011;5912;51.034;6.984;2023-02-01T06:31:51;10.27;;;2.20;;
11711;SDS011;5912;51.034;6.984;2023-02-01T06:34:17;8.30;;;1.93;;
11711;SDS011;5912;51.034;6.984;2023-02-01T06:36:42;9.10;;;1.90;;
11711;SDS011;5912;51.034;6.984;2023-02-01T06:39:08;14.00;;;2.63;;
11711;SDS011;5912;51.034;6.984;2023-02-01T06:41:33;10.43;;;2.67;;
11711;SDS011;5912;51.034;6.984;2023-02-01T06:43:59;13.60;;;2.23;;
11711;SDS011;5912;51.034;6.984;2023-02-01T06:46:25;12.13;;;2.70;;
11711;SDS011;5912;51.034;6.984;2023-02-01T06:48:50;9.47;;;2.10;;
11711;SDS011;5912;51.034;6.984;2023-02-01T06:51:19;8.40;;;2.27;;
11711;SDS011;5912;51.034;6.984;2023-02-01T06:53:49;5.63;;;2.10;;
11711;SDS011;5912;51.034;6.984;2023-02-01T06:56:15;9.97;;;2.20;;
11711;SDS011;5912;51.034;6.984;2023-02-01T06:58:40;8.77;;;2.23;;
11711;SDS011;5912;51.034;6.984;2023-02-01T07:01:06;7.43;;;2.07;;
11711;SDS011;5912;51.034;6.984;2023-02-01T07:03:33;10.83;;;2.60;;
11711;SDS011;5912;51.034;6.984;2023-02-01T07:05:59;7.67;;;2.23;;
11711;SDS011;5912;51.034;6.984;2023-02-01T07:08:26;9.00;;;2.30;;
11711;SDS011;5912;51.034;6.984;2023-02-01T07:10:53;8.43;;;2.00;;
11711;SDS011;5912;51.034;6.984;2023-02-01T07:13:18;9.47;;;2.50;;
11711;SDS011;5912;51.034;6.984;2023-02-01T07:15:44;7.93;;;2.03;;
11711;SDS011;5912;51.034;6.984;2023-02-01T07:18:17;8.07;;;2.50;;
11711;SDS011;5912;51.034;6.984;2023-02-01T07:20:43;9.83;;;2.43;;
11711;SDS011;5912;51.034;6.984;2023-02-01T07:23:15;7.10;;;2.10;;
11711;SDS011;5912;51.034;6.984;2023-02-01T07:25:40;12.87;;;2.60;;
11711;SDS011;5912;51.034;6.984;2023-02-01T07:28:05;6.70;;;1.93;;
11711;SDS011;5912;51.034;6.984;2023-02-01T07:30:31;10.73;;;2.30;;
11711;SDS011;5912;51.034;6.984;2023-02-01T07:32:56;8.80;;;2.20;;
11711;SDS011;5912;51.034;6.984;2023-02-01T07:35:25;10.50;;;2.47;;
11711;SDS011;5912;51.034;6.984;2023-02-01T07:37:51;15.20;;;2.60;;
11711;SDS011;5912;51.034;6.984;2023-02-01T07:40:16;8.07;;;2.40;;
11711;SDS011;5912;51.034;6.984;2023-02-01T07:42:43;7.63;;;2.50;;
11711;SDS011;5912;51.034;6.984;2023-02-01T07:45:08;5.37;;;2.37;;
11711;SDS011;5912;51.034;6.984;2023-02-01T07:47:34;10.27;;;2.60;;
11711;SDS011;5912;51.034;6.984;2023-02-01T07:49:59;5.50;;;2.17;;
11711;SDS011;5912;51.034;6.984;2023-02-01T07:52:27;8.83;;;2.30;;
11711;SDS011;5912;51.034;6.984;2023-02-01T07:54:53;9.87;;;2.47;;
11711;SDS011;5912;51.034;6.984;2023-02-01T07:57:19;13.03;;;3.50;;
11711;SDS011;5912;51.034;6.984;2023-02-01T07:59:44;8.03;;;2.30;;
11711;SDS011;5912;51.034;6.984;2023-02-01T08:02:28;9.83;;;3.00;;
11711;SDS011;5912;51.034;6.984;2023-02-01T08:04:53;6.70;;;2.67;;
11711;SDS011;5912;51.034;6.984;2023-02-01T08:07:18;14.83;;;2.50;;
11711;SDS011;5912;51.034;6.984;2023-02-01T08:09:44;6.80;;;2.23;;
11711;SDS011;5912;51.034;6.984;2023-02-01T08:12:09;12.97;;;2.40;;
11711;SDS011;5912;51.034;6.984;2023-02-01T08:14:34;9.70;;;2.70;;
11711;SDS011;5912;51.034;6.984;2023-02-01T08:16:59;4.03;;;1.97;;
11711;SDS011;5912;51.034;6.984;2023-02-01T08:19:25;7.77;;;2.30;;
11711;SDS011;5912;51.034;6.984;2023-02-01T08:21:50;8.17;;;2.10;;
11711;SDS011;5912;51.034;6.984;2023-02-01T08:24:15;10.10;;;2.40;;
11711;SDS011;5912;51.034;6.984;2023-02-01T08:26:41;9.10;;;2.27;;
11711;SDS011;5912;51.034;6.984;2023-02-01T08:29:07;9.67;;;2.60;;
11711;SDS011;5912;51.034;6.984;2023-02-01T08:31:35;7.13;;;2.23;;
11711;SDS011;5912;51.034;6.984;2023-02-01T08:34:01;6.03;;;2.10;;
11711;SDS011;5912;51.034;6.984;2023-02-01T08:36:29;9.27;;;2.80;;
11711;SDS011;5912;51.034;6.984;2023-02-01T08:38:55;9.70;;;2.60;;
11711;SDS011;5912;51.034;6.984;2023-02-01T08:41:22;7.53;;;2.47;;
11711;SDS011;5912;51.034;6.984;2023-02-01T08:43:49;14.23;;;2.80;;
11711;SDS011;5912;51.034;6.984;2023-02-01T08:46:15;12.33;;;3.10;;
11711;SDS011;5912;51.034;6.984;2023-02-01T08:48:41;6.77;;;2.10;;
11711;SDS011;5912;51.034;6.984;2023-02-01T08:51:08;11.10;;;2.87;;
11711;SDS011;5912;51.034;6.984;2023-02-01T08:53:36;7.20;;;2.40;;
11711;SDS011;5912;51.034;6.984;2023-02-01T08:56:03;9.37;;;2.47;;
11711;SDS011;5912;51.034;6.984;2023-02-01T08:58:28;10.50;;;2.40;;
11711;SDS011;5912;51.034;6.984;2023-02-01T09:00:54;12.87;;;3.40;;
11711;SDS011;5912;51.034;6.984;2023-02-01T09:03:19;7.77;;;2.27;;
11711;SDS011;5912;51.034;6.984;2023-02-01T09:05:44;8.83;;;2.63;;
11711;SDS011;5912;51.034;6.984;2023-02-01T09:08:10;8.17;;;2.57;;
11711;SDS011;5912;51.034;6.984;2023-02-01T09:10:39;6.00;;;1.80;;
11711;SDS011;5912;51.034;6.984;2023-02-01T09:13:04;9.43;;;2.20;;
11711;SDS011;5912;51.034;6.984;2023-02-01T09:15:30;12.47;;;2.83;;
11711;SDS011;5912;51.034;6.984;2023-02-01T09:17:55;9.90;;;2.67;;
11711;SDS011;5912;51.034;6.984;2023-02-01T09:20:20;10.10;;;2.50;;
11711;SDS011;5912;51.034;6.984;2023-02-01T09:22:49;12.13;;;2.87;;
11711;SDS011;5912;51.034;6.984;2023-02-01T09:25:15;8.93;;;2.40;;
11711;SDS011;5912;51.034;6.984;2023-02-01T09:27:40;8.70;;;2.30;;
11711;SDS011;5912;51.034;6.984;2023-02-01T09:30:06;10.37;;;2.30;;
11711;SDS011;5912;51.034;6.984;2023-02-01T09:32:32;9.97;;;2.30;;
11711;SDS011;5912;51.034;6.984;2023-02-01T09:34:57;9.13;;;2.03;;
11711;SDS011;5912;51.034;6.984;2023-02-01T09:37:22;8.37;;;2.70;;
11711;SDS011;5912;51.034;6.984;2023-02-01T09:39:48;15.03;;;3.20;;
11711;SDS011;5912;51.034;6.984;2023-02-01T09:42:32;11.63;;;2.40;;
11711;SDS011;5912;51.034;6.984;2023-02-01T09:45:29;12.70;;;2.43;;
11711;SDS011;5912;51.034;6.984;2023-02-01T09:47:57;7.33;;;2.33;;
11711;SDS011;5912;51.034;6.984;2023-02-01T09:53:09;8.03;;;2.50;;
11711;SDS011;5912;51.034;6.984;2023-02-01T10:00:40;5.80;;;2.13;;
11711;SDS011;5912;51.034;6.984;2023-02-01T10:03:15;10.87;;;2.27;;
11711;SDS011;5912;51.034;6.984;2023-02-01T10:05:44;8.30;;;2.25;;
11711;SDS011;5912;51.034;6.984;2023-02-01T10:14:34;11.30;;;2.60;;
11711;SDS011;5912;51.034;6.984;2023-02-01T10:22:46;9.00;;;2.90;;
11711;SDS011;5912;51.034;6.984;2023-02-01T10:25:36;9.07;;;2.97;;
11711;SDS011;5912;51.034;6.984;2023-02-01T10:28:12;13.03;;;2.53;;
11711;SDS011;5912;51.034;6.984;2023-02-01T10:30:42;12.40;;;3.08;;
11711;SDS011;5912;51.034;6.984;2023-02-01T10:33:17;11.80;;;2.65;;
11711;SDS011;5912;51.034;6.984;2023-02-01T10:35:49;7.40;;;2.63;;
11711;SDS011;5912;51.034;6.984;2023-02-01T10:38:24;7.32;;;2.40;;
11711;SDS011;5912;51.034;6.984;2023-02-01T10:40:56;7.93;;;2.58;;
11711;SDS011;5912;51.034;6.984;2023-02-01T10:43:28;7.00;;;2.08;;
11711;SDS011;5912;51.034;6.984;2023-02-01T10:45:53;6.85;;;2.50;;
11711;SDS011;5912;51.034;6.984;2023-02-01T10:48:19;8.07;;;2.47;;
11711;SDS011;5912;51.034;6.984;2023-02-01T10:51:20;8.02;;;2.20;;
11711;SDS011;5912;51.034;6.984;2023-02-01T10:54:02;8.45;;;2.22;;
11711;SDS011;5912;51.034;6.984;2023-02-01T10:56:37;9.55;;;2.67;;
11711;SDS011;5912;51.034;6.984;2023-02-01T10:59:11;8.27;;;2.47;;
11711;SDS011;5912;51.034;6.984;2023-02-01T11:01:45;10.52;;;2.70;;
11711;SDS011;5912;51.034;6.984;2023-02-01T11:04:13;10.15;;;2.63;;
11711;SDS011;5912;51.034;6.984;2023-02-01T11:06:44;11.43;;;2.60;;
11711;SDS011;5912;51.034;6.984;2023-02-01T11:09:16;7.07;;;2.50;;
11711;SDS011;5912;51.034;6.984;2023-02-01T11:14:17;7.35;;;2.28;;
11711;SDS011;5912;51.034;6.984;2023-02-01T11:16:59;6.70;;;2.97;;
11711;SDS011;5912;51.034;6.984;2023-02-01T11:19:26;10.80;;;3.05;;
11711;SDS011;5912;51.034;6.984;2023-02-01T11:21:53;8.48;;;2.80;;
11711;SDS011;5912;51.034;6.984;2023-02-01T11:24:31;8.57;;;2.40;;
11711;SDS011;5912;51.034;6.984;2023-02-01T11:27:01;10.70;;;2.83;;
11711;SDS011;5912;51.034;6.984;2023-02-01T11:29:29;6.90;;;2.13;;
11711;SDS011;5912;51.034;6.984;2023-02-01T11:32:01;7.53;;;2.03;;
11711;SDS011;5912;51.034;6.984;2023-02-01T11:34:48;8.80;;;2.58;;
11711;SDS011;5912;51.034;6.984;2023-02-01T11:37:25;7.43;;;2.45;;
11711;SDS011;5912;51.034;6.984;2023-02-01T11:39:54;6.75;;;2.50;;
11711;SDS011;5912;51.034;6.984;2023-02-01T11:42:22;11.00;;;2.58;;
11711;SDS011;5912;51.034;6.984;2023-02-01T11:44:48;11.30;;;2.58;;
11711;SDS011;5912;51.034;6.984;2023-02-01T11:49:56;6.30;;;2.00;;
11711;SDS011;5912;51.034;6.984;2023-02-01T11:52:33;8.00;;;1.85;;
11711;SDS011;5912;51.034;6.984;2023-02-01T12:03:49;8.57;;;2.40;;
11711;SDS011;5912;51.034;6.984;2023-02-01T12:06:24;9.73;;;2.90;;
11711;SDS011;5912;51.034;6.984;2023-02-01T12:09:08;7.53;;;2.15;;
11711;SDS011;5912;51.034;6.984;2023-02-01T12:22:55;8.35;;;2.05;;
11711;SDS011;5912;51.034;6.984;2023-02-01T12:31:00;8.00;;;2.40;;
11711;SDS011;5912;51.034;6.984;2023-02-01T12:33:42;7.28;;;1.67;;
11711;SDS011;5912;51.034;6.984;2023-02-01T12:39:04;11.13;;;2.33;;
11711;SDS011;5912;51.034;6.984;2023-02-01T12:44:31;6.18;;;1.98;;
11711;SDS011;5912;51.034;6.984;2023-02-01T12:52:52;7.68;;;2.20;;
11711;SDS011;5912;51.034;6.984;2023-02-01T12:55:24;10.40;;;2.17;;
11711;SDS011;5912;51.034;6.984;2023-02-01T12:58:20;6.97;;;1.95;;
11711;SDS011;5912;51.034;6.984;2023-02-01T13:00:54;7.32;;;1.95;;
11711;SDS011;5912;51.034;6.984;2023-02-01T13:03:36;7.13;;;1.95;;
11711;SDS011;5912;51.034;6.984;2023-02-01T13:06:08;8.40;;;2.22;;
11711;SDS011;5912;51.034;6.984;2023-02-01T13:08:50;11.45;;;2.33;;
11711;SDS011;5912;51.034;6.984;2023-02-01T13:14:00;9.37;;;2.30;;
11711;SDS011;5912;51.034;6.984;2023-02-01T13:16:30;7.97;;;2.03;;
11711;SDS011;5912;51.034;6.984;2023-02-01T13:19:03;9.85;;;2.30;;
11711;SDS011;5912;51.034;6.984;2023-02-01T13:21:36;13.27;;;2.33;;
11711;SDS011;5912;51.034;6.984;2023-02-01T13:24:09;6.23;;;2.00;;
11711;SDS011;5912;51.034;6.984;2023-02-01T13:26:49;6.35;;;2.15;;
11711;SDS011;5912;51.034;6.984;2023-02-01T13:29:17;7.35;;;2.38;;
11711;SDS011;5912;51.034;6.984;2023-02-01T13:41:02;11.25;;;2.33;;
11711;SDS011;5912;51.034;6.984;2023-02-01T13:43:15;9.15;;;2.75;;
11711;SDS011;5912;51.034;6.984;2023-02-01T13:45:47;10.38;;;2.20;;
11711;SDS011;5912;51.034;6.984;2023-02-01T13:48:20;5.63;;;1.75;;
11711;SDS011;5912;51.034;6.984;2023-02-01T13:51:07;7.68;;;3.03;;
11711;SDS011;5912;51.034;6.984;2023-02-01T13:53:35;8.85;;;2.25;;
11711;SDS011;5912;51.034;6.984;2023-02-01T13:56:09;9.15;;;1.90;;
11711;SDS011;5912;51.034;6.984;2023-02-01T13:58:40;9.95;;;1.60;;
11711;SDS011;5912;51.034;6.984;2023-02-01T14:03:48;6.13;;;1.73;;
11711;SDS011;5912;51.034;6.984;2023-02-01T14:14:06;8.50;;;2.10;;
11711;SDS011;5912;51.034;6.984;2023-02-01T14:16:38;9.95;;;1.77;;
11711;SDS011;5912;51.034;6.984;2023-02-01T14:19:07;6.85;;;1.77;;
11711;SDS011;5912;51.034;6.984;2023-02-01T14:21:34;6.03;;;1.83;;
11711;SDS011;5912;51.034;6.984;2023-02-01T14:24:19;8.18;;;2.00;;
11711;SDS011;5912;51.034;6.984;2023-02-01T14:26:50;9.63;;;1.85;;
11711;SDS011;5912;51.034;6.984;2023-02-01T14:36:59;7.23;;;1.87;;
11711;SDS011;5912;51.034;6.984;2023-02-01T14:39:34;7.63;;;1.58;;
11711;SDS011;5912;51.034;6.984;2023-02-01T14:44:49;7.50;;;1.90;;
11711;SDS011;5912;51.034;6.984;2023-02-01T14:49:57;5.47;;;1.35;;
11711;SDS011;5912;51.034;6.984;2023-02-01T14:52:31;7.95;;;1.70;;
11711;SDS011;5912;51.034;6.984;2023-02-01T14:55:02;6.28;;;2.03;;
11711;SDS011;5912;51.034;6.984;2023-02-01T14:57:31;5.90;;;1.95;;
11711;SDS011;5912;51.034;6.984;2023-02-01T15:00:05;7.25;;;1.40;;
11711;SDS011;5912;51.034;6.984;2023-02-01T15:02:38;4.63;;;1.50;;
11711;SDS011;5912;51.034;6.984;2023-02-01T15:05:12;6.30;;;1.67;;
11711;SDS011;5912;51.034;6.984;2023-02-01T15:07:56;8.30;;;2.22;;
11711;SDS011;5912;51.034;6.984;2023-02-01T15:10:25;7.47;;;1.97;;
11711;SDS011;5912;51.034;6.984;2023-02-01T15:12:52;5.38;;;1.63;;
11711;SDS011;5912;51.034;6.984;2023-02-01T15:17:57;7.43;;;1.85;;
11711;SDS011;5912;51.034;6.984;2023-02-01T15:20:28;4.18;;;1.52;;
11711;SDS011;5912;51.034;6.984;2023-02-01T15:23:00;9.38;;;1.92;;
11711;SDS011;5912;51.034;6.984;2023-02-01T15:25:31;7.63;;;1.85;;
11711;SDS011;5912;51.034;6.984;2023-02-01T15:28:03;6.03;;;1.42;;
11711;SDS011;5912;51.034;6.984;2023-02-01T15:30:32;5.00;;;1.63;;
11711;SDS011;5912;51.034;6.984;2023-02-01T15:33:16;6.63;;;2.08;;
11711;SDS011;5912;51.034;6.984;2023-02-01T15:35:45;6.95;;;1.55;;
11711;SDS011;5912;51.034;6.984;2023-02-01T15:40:57;7.63;;;1.97;;
11711;SDS011;5912;51.034;6.984;2023-02-01T15:43:34;8.07;;;1.50;;
11711;SDS011;5912;51.034;6.984;2023-02-01T15:46:03;5.35;;;1.52;;
11711;SDS011;5912;51.034;6.984;2023-02-01T15:48:35;4.83;;;1.60;;
11711;SDS011;5912;51.034;6.984;2023-02-01T15:51:04;6.38;;;1.75;;
11711;SDS011;5912;51.034;6.984;2023-02-01T15:53:30;6.55;;;1.70;;
11711;SDS011;5912;51.034;6.984;2023-02-01T15:55:58;5.78;;;1.52;;
11711;SDS011;5912;51.034;6.984;2023-02-01T15:58:25;5.47;;;1.83;;
11711;SDS011;5912;51.034;6.984;2023-02-01T16:01:11;6.88;;;1.70;;
11711;SDS011;5912;51.034;6.984;2023-02-01T16:03:40;10.07;;;1.97;;
11711;SDS011;5912;51.034;6.984;2023-02-01T16:06:11;8.70;;;2.13;;
11711;SDS011;5912;51.034;6.984;2023-02-01T16:08:54;8.27;;;2.15;;
11711;SDS011;5912;51.034;6.984;2023-02-01T16:11:29;7.95;;;1.83;;
11711;SDS011;5912;51.034;6.984;2023-02-01T16:13:57;8.25;;;1.52;;
11711;SDS011;5912;51.034;6.984;2023-02-01T16:16:24;9.23;;;2.05;;
11711;SDS011;5912;51.034;6.984;2023-02-01T16:18:50;8.73;;;2.17;;
11711;SDS011;5912;51.034;6.984;2023-02-01T16:21:15;6.18;;;1.40;;
11711;SDS011;5912;51.034;6.984;2023-02-01T16:23:41;11.68;;;2.00;;
11711;SDS011;5912;51.034;6.984;2023-02-01T16:26:06;7.88;;;1.70;;
11711;SDS011;5912;51.034;6.984;2023-02-01T16:28:32;8.37;;;1.47;;
11711;SDS011;5912;51.034;6.984;2023-02-01T16:30:58;7.10;;;1.58;;
11711;SDS011;5912;51.034;6.984;2023-02-01T16:33:23;9.55;;;1.98;;
11711;SDS011;5912;51.034;6.984;2023-02-01T16:35:49;6.07;;;1.60;;
11711;SDS011;5912;51.034;6.984;2023-02-01T16:38:16;7.32;;;1.65;;
11711;SDS011;5912;51.034;6.984;2023-02-01T16:40:44;7.47;;;1.67;;
11711;SDS011;5912;51.034;6.984;2023-02-01T16:43:17;7.22;;;1.63;;
11711;SDS011;5912;51.034;6.984;2023-02-01T16:45:45;7.25;;;2.30;;
11711;SDS011;5912;51.034;6.984;2023-02-01T16:48:19;8.43;;;1.97;;
11711;SDS011;5912;51.034;6.984;2023-02-01T16:50:49;4.88;;;1.75;;
11711;SDS011;5912;51.034;6.984;2023-02-01T16:53:17;8.55;;;1.92;;
11711;SDS011;5912;51.034;6.984;2023-02-01T16:55:43;12.40;;;1.98;;
11711;SDS011;5912;51.034;6.984;2023-02-01T16:58:11;6.47;;;2.00;;
11711;SDS011;5912;51.034;6.984;2023-02-01T17:00:36;6.73;;;1.67;;
11711;SDS011;5912;51.034;6.984;2023-02-01T17:03:03;8.35;;;2.00;;
11711;SDS011;5912;51.034;6.984;2023-02-01T17:05:30;10.18;;;2.17;;
11711;SDS011;5912;51.034;6.984;2023-02-01T17:07:57;3.85;;;1.48;;
11711;SDS011;5912;51.034;6.984;2023-02-01T17:10:30;7.65;;;1.52;;
11711;SDS011;5912;51.034;6.984;2023-02-01T17:12:56;14.10;;;2.22;;
11711;SDS011;5912;51.034;6.984;2023-02-01T17:15:22;7.18;;;2.20;;
11711;SDS011;5912;51.034;6.984;2023-02-01T17:17:49;7.83;;;2.07;;
11711;SDS011;5912;51.034;6.984;2023-02-01T17:20:20;8.40;;;2.10;;
11711;SDS011;5912;51.034;6.984;2023-02-01T17:22:46;10.40;;;2.40;;
11711;SDS011;5912;51.034;6.984;2023-02-01T17:25:20;7.93;;;2.00;;